sensor_id;sensor_type;location;lat;lon;timestamp;temperature;humidity
2899;DHT22;1459;50.864;6.438;2022-11-03T00:01:00;10.50;99.90
2899;DHT22;1459;50.864;6.438;2022-11-03T00:03:27;10.50;99.90
2899;DHT22;1459;50.864;6.438;2022-11-03T00:05:54;10.60;99.90
2899;DHT22;1459;50.864;6.438;2022-11-03T00:08:38;10.60;99.90
2899;DHT22;1459;50.864;6.438;2022-11-03T00:11:08;10.70;99.90
2899;DHT22;1459;50.864;6.438;2022-11-03T00:13:36;10.80;99.90
2899;DHT22;1459;50.864;6.438;2022-11-03T00:16:04;10.80;99.90
2899;DHT22;1459;50.864;6.438;2022-11-03T00:18:32;10.90;99.90
2899;DHT22;1459;50.864;6.438;2022-11-03T00:21:00;11.00;99.90
2899;DHT22;1459;50.864;6.438;2022-11-03T00:23:29;11.00;99.90
2899;DHT22;1459;50.864;6.438;2022-11-03T00:26:09;11.10;99.90
2899;DHT22;1459;50.864;6.438;2022-11-03T00:28:38;11.10;99.90
2899;DHT22;1459;50.864;6.438;2022-11-03T00:31:07;11.20;99.90
2899;DHT22;1459;50.864;6.438;2022-11-03T00:33:35;11.30;99.90
2899;DHT22;1459;50.864;6.438;2022-11-03T00:36:03;11.30;99.90
2899;DHT22;1459;50.864;6.438;2022-11-03T00:38:30;11.40;99.90
2899;DHT22;1459;50.864;6.438;2022-11-03T00:40:59;11.50;99.90
2899;DHT22;1459;50.864;6.438;2022-11-03T00:43:29;11.50;99.90
2899;DHT22;1459;50.864;6.438;2022-11-03T00:45:57;11.50;99.90
2899;DHT22;1459;50.864;6.438;2022-11-03T00:48:24;11.60;99.90
2899;DHT22;1459;50.864;6.438;2022-11-03T00:51:04;11.60;99.90
2899;DHT22;1459;50.864;6.438;2022-11-03T00:53:33;11.60;99.90
2899;DHT22;1459;50.864;6.438;2022-11-03T00:56:01;11.60;99.90
2899;DHT22;1459;50.864;6.438;2022-11-03T00:58:29;11.60;99.90
2899;DHT22;1459;50.864;6.438;2022-11-03T01:01:00;11.60;99.90
2899;DHT22;1459;50.864;6.438;2022-11-03T01:03:28;11.60;99.90
2899;DHT22;1459;50.864;6.438;2022-11-03T01:05:55;11.60;99.90
2899;DHT22;1459;50.864;6.438;2022-11-03T01:08:39;11.60;99.90
2899;DHT22;1459;50.864;6.438;2022-11-03T01:11:07;11.60;99.90
2899;DHT22;1459;50.864;6.438;2022-11-03T01:13:53;11.60;99.90
2899;DHT22;1459;50.864;6.438;2022-11-03T01:16:21;11.60;99.90
2899;DHT22;1459;50.864;6.438;2022-11-03T01:18:48;11.50;99.90
2899;DHT22;1459;50.864;6.438;2022-11-03T01:21:15;11.50;99.90
2899;DHT22;1459;50.864;6.438;2022-11-03T01:23:42;11.50;99.90
2899;DHT22;1459;50.864;6.438;2022-11-03T01:26:10;11.50;99.90
2899;DHT22;1459;50.864;6.438;2022-11-03T01:28:40;11.50;99.90
2899;DHT22;1459;50.864;6.438;2022-11-03T01:31:10;11.50;99.90
2899;DHT22;1459;50.864;6.438;2022-11-03T01:33:38;11.60;99.90
2899;DHT22;1459;50.864;6.438;2022-11-03T01:36:05;11.60;99.90
2899;DHT22;1459;50.864;6.438;2022-11-03T01:38:34;11.60;99.90
2899;DHT22;1459;50.864;6.438;2022-11-03T01:41:03;11.60;99.90
2899;DHT22;1459;50.864;6.438;2022-11-03T01:43:31;11.70;99.90
2899;DHT22;1459;50.864;6.438;2022-11-03T01:46:03;11.70;99.90
2899;DHT22;1459;50.864;6.438;2022-11-03T01:48:34;11.80;99.90
2899;DHT22;1459;50.864;6.438;2022-11-03T01:51:03;11.80;99.90
2899;DHT22;1459;50.864;6.438;2022-11-03T01:53:33;11.80;99.90
2899;DHT22;1459;50.864;6.438;2022-11-03T01:56:02;11.90;99.90
2899;DHT22;1459;50.864;6.438;2022-11-03T01:58:31;11.90;99.90
2899;DHT22;1459;50.864;6.438;2022-11-03T02:01:00;11.90;99.90
2899;DHT22;1459;50.864;6.438;2022-11-03T02:03:38;11.90;99.90
2899;DHT22;1459;50.864;6.438;2022-11-03T02:06:07;12.00;99.90
2899;DHT22;1459;50.864;6.438;2022-11-03T02:08:37;12.00;99.90
2899;DHT22;1459;50.864;6.438;2022-11-03T02:11:05;12.00;99.90
2899;DHT22;1459;50.864;6.438;2022-11-03T02:13:47;12.00;99.90
2899;DHT22;1459;50.864;6.438;2022-11-03T02:16:14;11.90;99.90
2899;DHT22;1459;50.864;6.438;2022-11-03T02:18:43;11.90;99.90
2899;DHT22;1459;50.864;6.438;2022-11-03T02:21:18;11.80;99.90
2899;DHT22;1459;50.864;6.438;2022-11-03T02:23:53;11.80;99.90
2899;DHT22;1459;50.864;6.438;2022-11-03T02:26:25;11.70;99.90
2899;DHT22;1459;50.864;6.438;2022-11-03T02:28:53;11.60;99.90
2899;DHT22;1459;50.864;6.438;2022-11-03T02:31:28;11.60;99.90
2899;DHT22;1459;50.864;6.438;2022-11-03T02:34:01;11.50;99.90
2899;DHT22;1459;50.864;6.438;2022-11-03T02:36:33;11.50;99.90
2899;DHT22;1459;50.864;6.438;2022-11-03T02:39:05;11.40;99.90
2899;DHT22;1459;50.864;6.438;2022-11-03T02:41:37;11.40;99.90
2899;DHT22;1459;50.864;6.438;2022-11-03T02:44:07;11.30;99.90
2899;DHT22;1459;50.864;6.438;2022-11-03T02:46:38;11.30;99.90
2899;DHT22;1459;50.864;6.438;2022-11-03T02:49:06;11.30;99.90
2899;DHT22;1459;50.864;6.438;2022-11-03T02:51:34;11.30;99.90
2899;DHT22;1459;50.864;6.438;2022-11-03T02:54:07;11.30;99.90
2899;DHT22;1459;50.864;6.438;2022-11-03T02:56:43;11.20;99.90
2899;DHT22;1459;50.864;6.438;2022-11-03T02:59:15;11.20;99.90
2899;DHT22;1459;50.864;6.438;2022-11-03T03:01:48;11.20;99.90
2899;DHT22;1459;50.864;6.438;2022-11-03T03:04:22;11.20;99.90
2899;DHT22;1459;50.864;6.438;2022-11-03T03:06:54;11.20;99.90
2899;DHT22;1459;50.864;6.438;2022-11-03T03:09:25;11.20;99.90
2899;DHT22;1459;50.864;6.438;2022-11-03T03:11:57;11.20;99.90
2899;DHT22;1459;50.864;6.438;2022-11-03T03:14:28;11.10;99.90
2899;DHT22;1459;50.864;6.438;2022-11-03T03:17:00;11.10;99.90
2899;DHT22;1459;50.864;6.438;2022-11-03T03:19:43;11.10;99.90
2899;DHT22;1459;50.864;6.438;2022-11-03T03:22:24;11.10;99.90
2899;DHT22;1459;50.864;6.438;2022-11-03T03:24:57;11.10;99.90
2899;DHT22;1459;50.864;6.438;2022-11-03T03:27:29;11.10;99.90
2899;DHT22;1459;50.864;6.438;2022-11-03T03:30:02;11.00;99.90
2899;DHT22;1459;50.864;6.438;2022-11-03T03:32:32;11.00;99.90
2899;DHT22;1459;50.864;6.438;2022-11-03T03:35:02;11.00;99.90
2899;DHT22;1459;50.864;6.438;2022-11-03T03:37:33;11.00;99.90
2899;DHT22;1459;50.864;6.438;2022-11-03T03:40:06;11.00;99.90
2899;DHT22;1459;50.864;6.438;2022-11-03T03:42:36;11.00;99.90
2899;DHT22;1459;50.864;6.438;2022-11-03T03:45:06;11.00;99.90
2899;DHT22;1459;50.864;6.438;2022-11-03T03:47:33;11.00;99.90
2899;DHT22;1459;50.864;6.438;2022-11-03T03:50:01;11.00;99.90
2899;DHT22;1459;50.864;6.438;2022-11-03T03:52:28;10.90;99.90
2899;DHT22;1459;50.864;6.438;2022-11-03T03:54:57;10.90;99.90
2899;DHT22;1459;50.864;6.438;2022-11-03T03:57:25;10.90;99.90
2899;DHT22;1459;50.864;6.438;2022-11-03T03:59:54;10.90;99.90
2899;DHT22;1459;50.864;6.438;2022-11-03T04:02:21;10.90;99.90
2899;DHT22;1459;50.864;6.438;2022-11-03T04:04:48;10.90;99.90
2899;DHT22;1459;50.864;6.438;2022-11-03T04:07:18;10.90;99.90
2899;DHT22;1459;50.864;6.438;2022-11-03T04:10:03;10.90;99.90
2899;DHT22;1459;50.864;6.438;2022-11-03T04:12:30;10.90;99.90
2899;DHT22;1459;50.864;6.438;2022-11-03T04:15:24;10.90;99.90
2899;DHT22;1459;50.864;6.438;2022-11-03T04:18:11;11.00;99.90
2899;DHT22;1459;50.864;6.438;2022-11-03T04:20:55;11.00;99.90
2899;DHT22;1459;50.864;6.438;2022-11-03T04:23:39;11.00;99.90
2899;DHT22;1459;50.864;6.438;2022-11-03T04:26:12;11.00;99.90
2899;DHT22;1459;50.864;6.438;2022-11-03T04:28:39;11.00;99.90
2899;DHT22;1459;50.864;6.438;2022-11-03T04:31:11;11.00;99.90
2899;DHT22;1459;50.864;6.438;2022-11-03T04:33:39;11.00;99.90
2899;DHT22;1459;50.864;6.438;2022-11-03T04:36:11;11.00;99.90
2899;DHT22;1459;50.864;6.438;2022-11-03T04:38:39;11.00;99.90
2899;DHT22;1459;50.864;6.438;2022-11-03T04:41:13;11.00;99.90
2899;DHT22;1459;50.864;6.438;2022-11-03T04:43:40;11.10;99.90
2899;DHT22;1459;50.864;6.438;2022-11-03T04:46:11;11.20;99.90
2899;DHT22;1459;50.864;6.438;2022-11-03T04:48:38;11.20;99.90
2899;DHT22;1459;50.864;6.438;2022-11-03T04:51:13;11.20;99.90
2899;DHT22;1459;50.864;6.438;2022-11-03T04:53:47;11.30;99.90
2899;DHT22;1459;50.864;6.438;2022-11-03T04:56:16;11.30;99.90
2899;DHT22;1459;50.864;6.438;2022-11-03T04:58:44;11.30;99.90
2899;DHT22;1459;50.864;6.438;2022-11-03T05:01:15;11.30;99.90
2899;DHT22;1459;50.864;6.438;2022-11-03T05:03:45;11.30;99.90
2899;DHT22;1459;50.864;6.438;2022-11-03T05:06:14;11.30;99.90
2899;DHT22;1459;50.864;6.438;2022-11-03T05:08:44;11.30;99.90
2899;DHT22;1459;50.864;6.438;2022-11-03T05:11:16;11.30;99.90
2899;DHT22;1459;50.864;6.438;2022-11-03T05:13:44;11.30;99.90
2899;DHT22;1459;50.864;6.438;2022-11-03T05:16:13;11.30;99.90
2899;DHT22;1459;50.864;6.438;2022-11-03T05:18:42;11.30;99.90
2899;DHT22;1459;50.864;6.438;2022-11-03T05:21:12;11.30;99.90
2899;DHT22;1459;50.864;6.438;2022-11-03T05:23:44;11.30;99.90
2899;DHT22;1459;50.864;6.438;2022-11-03T05:26:15;11.30;99.90
2899;DHT22;1459;50.864;6.438;2022-11-03T05:28:46;11.30;99.90
2899;DHT22;1459;50.864;6.438;2022-11-03T05:31:26;11.30;99.90
2899;DHT22;1459;50.864;6.438;2022-11-03T05:33:56;11.30;99.90
2899;DHT22;1459;50.864;6.438;2022-11-03T05:36:25;11.30;99.90
2899;DHT22;1459;50.864;6.438;2022-11-03T05:38:55;11.30;99.90
2899;DHT22;1459;50.864;6.438;2022-11-03T05:41:25;11.30;99.90
2899;DHT22;1459;50.864;6.438;2022-11-03T05:43:56;11.20;99.90
2899;DHT22;1459;50.864;6.438;2022-11-03T05:46:29;11.20;99.90
2899;DHT22;1459;50.864;6.438;2022-11-03T05:48:59;11.20;99.90
2899;DHT22;1459;50.864;6.438;2022-11-03T05:51:30;11.20;99.90
2899;DHT22;1459;50.864;6.438;2022-11-03T05:54:00;11.20;99.90
2899;DHT22;1459;50.864;6.438;2022-11-03T05:56:30;11.20;99.90
2899;DHT22;1459;50.864;6.438;2022-11-03T05:58:59;11.20;99.90
2899;DHT22;1459;50.864;6.438;2022-11-03T06:01:31;11.20;99.90
2899;DHT22;1459;50.864;6.438;2022-11-03T06:03:59;11.20;99.90
2899;DHT22;1459;50.864;6.438;2022-11-03T06:06:31;11.20;99.90
2899;DHT22;1459;50.864;6.438;2022-11-03T06:09:01;11.20;99.90
2899;DHT22;1459;50.864;6.438;2022-11-03T06:11:32;11.20;99.90
2899;DHT22;1459;50.864;6.438;2022-11-03T06:14:01;11.20;99.90
2899;DHT22;1459;50.864;6.438;2022-11-03T06:16:36;11.20;99.90
2899;DHT22;1459;50.864;6.438;2022-11-03T06:19:18;11.20;99.90
2899;DHT22;1459;50.864;6.438;2022-11-03T06:21:47;11.20;99.90
2899;DHT22;1459;50.864;6.438;2022-11-03T06:24:15;11.20;99.90
2899;DHT22;1459;50.864;6.438;2022-11-03T06:26:45;11.20;99.90
2899;DHT22;1459;50.864;6.438;2022-11-03T06:29:14;11.20;99.90
2899;DHT22;1459;50.864;6.438;2022-11-03T06:31:44;11.20;99.90
2899;DHT22;1459;50.864;6.438;2022-11-03T06:34:27;11.20;99.90
2899;DHT22;1459;50.864;6.438;2022-11-03T06:36:56;11.20;99.90
2899;DHT22;1459;50.864;6.438;2022-11-03T06:39:23;11.30;99.90
2899;DHT22;1459;50.864;6.438;2022-11-03T06:41:51;11.30;99.90
2899;DHT22;1459;50.864;6.438;2022-11-03T06:44:22;11.30;99.90
2899;DHT22;1459;50.864;6.438;2022-11-03T06:46:53;11.30;99.90
2899;DHT22;1459;50.864;6.438;2022-11-03T06:49:26;11.30;99.90
2899;DHT22;1459;50.864;6.438;2022-11-03T06:51:54;11.30;99.90
2899;DHT22;1459;50.864;6.438;2022-11-03T06:54:21;11.40;99.90
2899;DHT22;1459;50.864;6.438;2022-11-03T06:56:48;11.40;99.90
2899;DHT22;1459;50.864;6.438;2022-11-03T06:59:17;11.40;99.90
2899;DHT22;1459;50.864;6.438;2022-11-03T07:01:47;11.50;99.90
2899;DHT22;1459;50.864;6.438;2022-11-03T07:04:18;11.50;99.90
2899;DHT22;1459;50.864;6.438;2022-11-03T07:06:46;11.60;99.90
2899;DHT22;1459;50.864;6.438;2022-11-03T07:09:18;11.50;99.90
2899;DHT22;1459;50.864;6.438;2022-11-03T07:11:48;11.60;99.90
2899;DHT22;1459;50.864;6.438;2022-11-03T07:14:17;11.60;99.90
2899;DHT22;1459;50.864;6.438;2022-11-03T07:16:47;11.70;99.90
2899;DHT22;1459;50.864;6.438;2022-11-03T07:19:19;11.70;99.90
2899;DHT22;1459;50.864;6.438;2022-11-03T07:21:48;11.70;99.90
2899;DHT22;1459;50.864;6.438;2022-11-03T07:24:18;11.70;99.90
2899;DHT22;1459;50.864;6.438;2022-11-03T07:26:48;11.80;99.90
2899;DHT22;1459;50.864;6.438;2022-11-03T07:29:19;11.80;99.90
2899;DHT22;1459;50.864;6.438;2022-11-03T07:31:47;11.90;99.90
2899;DHT22;1459;50.864;6.438;2022-11-03T07:34:20;11.90;99.90
2899;DHT22;1459;50.864;6.438;2022-11-03T07:36:48;11.90;99.90
2899;DHT22;1459;50.864;6.438;2022-11-03T07:39:18;12.00;99.90
2899;DHT22;1459;50.864;6.438;2022-11-03T07:41:46;12.10;99.90
2899;DHT22;1459;50.864;6.438;2022-11-03T07:44:17;12.20;99.90
2899;DHT22;1459;50.864;6.438;2022-11-03T07:46:46;12.30;99.90
2899;DHT22;1459;50.864;6.438;2022-11-03T07:49:25;12.40;99.90
2899;DHT22;1459;50.864;6.438;2022-11-03T07:51:53;12.50;99.90
2899;DHT22;1459;50.864;6.438;2022-11-03T07:54:23;12.60;99.90
2899;DHT22;1459;50.864;6.438;2022-11-03T07:56:53;12.70;99.90
2899;DHT22;1459;50.864;6.438;2022-11-03T07:59:22;12.80;99.90
2899;DHT22;1459;50.864;6.438;2022-11-03T08:01:53;12.80;99.90
2899;DHT22;1459;50.864;6.438;2022-11-03T08:04:24;12.90;99.90
2899;DHT22;1459;50.864;6.438;2022-11-03T08:06:51;13.00;99.90
2899;DHT22;1459;50.864;6.438;2022-11-03T08:09:19;13.00;99.90
2899;DHT22;1459;50.864;6.438;2022-11-03T08:11:46;13.10;99.90
2899;DHT22;1459;50.864;6.438;2022-11-03T08:14:13;13.20;99.90
2899;DHT22;1459;50.864;6.438;2022-11-03T08:16:43;13.20;99.90
2899;DHT22;1459;50.864;6.438;2022-11-03T08:19:10;13.30;99.90
2899;DHT22;1459;50.864;6.438;2022-11-03T08:21:39;13.30;99.90
2899;DHT22;1459;50.864;6.438;2022-11-03T08:24:06;13.40;99.90
2899;DHT22;1459;50.864;6.438;2022-11-03T08:26:33;13.40;99.90
2899;DHT22;1459;50.864;6.438;2022-11-03T08:29:00;13.40;99.90
2899;DHT22;1459;50.864;6.438;2022-11-03T08:31:27;13.50;99.90
2899;DHT22;1459;50.864;6.438;2022-11-03T08:33:54;13.50;99.90
2899;DHT22;1459;50.864;6.438;2022-11-03T08:36:21;13.50;99.90
2899;DHT22;1459;50.864;6.438;2022-11-03T08:38:52;13.60;99.90
2899;DHT22;1459;50.864;6.438;2022-11-03T08:41:19;13.60;99.90
2899;DHT22;1459;50.864;6.438;2022-11-03T08:43:49;13.60;99.90
2899;DHT22;1459;50.864;6.438;2022-11-03T08:46:16;13.60;99.90
2899;DHT22;1459;50.864;6.438;2022-11-03T08:48:43;13.70;99.90
2899;DHT22;1459;50.864;6.438;2022-11-03T08:51:11;13.70;99.90
2899;DHT22;1459;50.864;6.438;2022-11-03T08:53:38;13.80;99.90
2899;DHT22;1459;50.864;6.438;2022-11-03T08:56:09;13.80;99.90
2899;DHT22;1459;50.864;6.438;2022-11-03T08:58:36;13.90;99.90
2899;DHT22;1459;50.864;6.438;2022-11-03T09:01:03;14.00;99.90
2899;DHT22;1459;50.864;6.438;2022-11-03T09:03:30;14.00;99.90
2899;DHT22;1459;50.864;6.438;2022-11-03T09:05:57;14.10;99.90
2899;DHT22;1459;50.864;6.438;2022-11-03T09:08:24;14.10;99.90
2899;DHT22;1459;50.864;6.438;2022-11-03T09:10:51;14.20;99.90
2899;DHT22;1459;50.864;6.438;2022-11-03T09:13:20;14.20;99.90
2899;DHT22;1459;50.864;6.438;2022-11-03T09:15:47;14.20;99.90
2899;DHT22;1459;50.864;6.438;2022-11-03T09:18:14;14.30;99.90
2899;DHT22;1459;50.864;6.438;2022-11-03T09:20:44;14.40;99.90
2899;DHT22;1459;50.864;6.438;2022-11-03T09:23:11;14.50;99.90
2899;DHT22;1459;50.864;6.438;2022-11-03T09:25:38;14.50;99.90
2899;DHT22;1459;50.864;6.438;2022-11-03T09:28:05;14.50;99.90
2899;DHT22;1459;50.864;6.438;2022-11-03T09:30:34;14.60;99.90
2899;DHT22;1459;50.864;6.438;2022-11-03T09:33:01;14.50;99.90
2899;DHT22;1459;50.864;6.438;2022-11-03T09:35:28;14.50;99.90
2899;DHT22;1459;50.864;6.438;2022-11-03T09:37:55;14.50;99.90
2899;DHT22;1459;50.864;6.438;2022-11-03T09:40:22;14.50;99.90
2899;DHT22;1459;50.864;6.438;2022-11-03T09:42:52;14.40;99.90
2899;DHT22;1459;50.864;6.438;2022-11-03T09:45:19;14.40;99.90
2899;DHT22;1459;50.864;6.438;2022-11-03T09:47:47;14.30;99.90
2899;DHT22;1459;50.864;6.438;2022-11-03T09:50:16;14.30;99.90
2899;DHT22;1459;50.864;6.438;2022-11-03T09:52:45;14.30;99.90
2899;DHT22;1459;50.864;6.438;2022-11-03T09:55:13;14.30;99.90
2899;DHT22;1459;50.864;6.438;2022-11-03T09:57:41;14.30;99.90
2899;DHT22;1459;50.864;6.438;2022-11-03T10:00:16;14.40;99.90
2899;DHT22;1459;50.864;6.438;2022-11-03T10:02:44;14.50;99.90
2899;DHT22;1459;50.864;6.438;2022-11-03T10:05:17;14.50;99.90
2899;DHT22;1459;50.864;6.438;2022-11-03T10:07:45;14.60;99.90
2899;DHT22;1459;50.864;6.438;2022-11-03T10:10:17;14.60;99.90
2899;DHT22;1459;50.864;6.438;2022-11-03T10:12:45;14.60;99.90
2899;DHT22;1459;50.864;6.438;2022-11-03T10:15:15;14.70;99.90
2899;DHT22;1459;50.864;6.438;2022-11-03T10:17:42;14.70;99.90
2899;DHT22;1459;50.864;6.438;2022-11-03T10:20:11;14.70;99.90
2899;DHT22;1459;50.864;6.438;2022-11-03T10:22:41;14.70;99.90
2899;DHT22;1459;50.864;6.438;2022-11-03T10:25:27;14.70;99.90
2899;DHT22;1459;50.864;6.438;2022-11-03T10:28:14;14.80;99.90
2899;DHT22;1459;50.864;6.438;2022-11-03T10:30:55;14.80;99.90
2899;DHT22;1459;50.864;6.438;2022-11-03T10:33:27;14.80;99.90
2899;DHT22;1459;50.864;6.438;2022-11-03T10:35:56;14.80;99.90
2899;DHT22;1459;50.864;6.438;2022-11-03T10:38:27;14.80;99.90
2899;DHT22;1459;50.864;6.438;2022-11-03T10:40:56;14.80;99.90
2899;DHT22;1459;50.864;6.438;2022-11-03T10:43:34;14.80;99.90
2899;DHT22;1459;50.864;6.438;2022-11-03T10:46:13;14.80;99.90
2899;DHT22;1459;50.864;6.438;2022-11-03T10:48:41;14.80;99.90
2899;DHT22;1459;50.864;6.438;2022-11-03T10:51:10;14.80;99.90
2899;DHT22;1459;50.864;6.438;2022-11-03T10:53:39;14.80;99.90
2899;DHT22;1459;50.864;6.438;2022-11-03T10:56:07;14.90;99.90
2899;DHT22;1459;50.864;6.438;2022-11-03T10:58:34;14.90;99.90
2899;DHT22;1459;50.864;6.438;2022-11-03T11:01:02;15.00;99.90
2899;DHT22;1459;50.864;6.438;2022-11-03T11:03:30;15.00;99.90
2899;DHT22;1459;50.864;6.438;2022-11-03T11:06:00;15.10;99.90
2899;DHT22;1459;50.864;6.438;2022-11-03T11:08:27;15.10;99.90
2899;DHT22;1459;50.864;6.438;2022-11-03T11:10:56;15.20;99.90
2899;DHT22;1459;50.864;6.438;2022-11-03T11:13:27;15.20;99.90
2899;DHT22;1459;50.864;6.438;2022-11-03T11:15:57;15.20;99.90
2899;DHT22;1459;50.864;6.438;2022-11-03T11:21:49;15.20;99.90
2899;DHT22;1459;50.864;6.438;2022-11-03T11:27:54;15.10;99.90
2899;DHT22;1459;50.864;6.438;2022-11-03T11:33:31;15.00;99.90
2899;DHT22;1459;50.864;6.438;2022-11-03T11:38:58;15.00;99.90
2899;DHT22;1459;50.864;6.438;2022-11-03T11:44:51;15.00;99.90
2899;DHT22;1459;50.864;6.438;2022-11-03T11:50:24;14.90;99.90
2899;DHT22;1459;50.864;6.438;2022-11-03T11:52:57;14.90;99.90
2899;DHT22;1459;50.864;6.438;2022-11-03T11:55:30;14.90;99.90
2899;DHT22;1459;50.864;6.438;2022-11-03T11:57:59;15.00;99.90
2899;DHT22;1459;50.864;6.438;2022-11-03T12:00:30;15.10;99.90
2899;DHT22;1459;50.864;6.438;2022-11-03T12:02:59;15.10;99.90
2899;DHT22;1459;50.864;6.438;2022-11-03T12:05:29;15.20;99.90
2899;DHT22;1459;50.864;6.438;2022-11-03T12:07:59;15.20;99.90
2899;DHT22;1459;50.864;6.438;2022-11-03T12:10:28;15.20;99.90
2899;DHT22;1459;50.864;6.438;2022-11-03T12:12:56;15.30;99.90
2899;DHT22;1459;50.864;6.438;2022-11-03T12:18:34;15.30;99.90
2899;DHT22;1459;50.864;6.438;2022-11-03T12:21:03;15.30;99.90
2899;DHT22;1459;50.864;6.438;2022-11-03T12:23:35;15.30;99.90
2899;DHT22;1459;50.864;6.438;2022-11-03T12:26:03;15.20;99.90
2899;DHT22;1459;50.864;6.438;2022-11-03T12:28:31;15.20;99.90
2899;DHT22;1459;50.864;6.438;2022-11-03T12:30:58;15.20;99.90
2899;DHT22;1459;50.864;6.438;2022-11-03T12:33:26;15.20;99.90
2899;DHT22;1459;50.864;6.438;2022-11-03T12:35:55;15.20;99.90
2899;DHT22;1459;50.864;6.438;2022-11-03T12:38:22;15.20;99.90
2899;DHT22;1459;50.864;6.438;2022-11-03T12:40:50;15.20;99.90
2899;DHT22;1459;50.864;6.438;2022-11-03T12:43:18;15.20;99.90
2899;DHT22;1459;50.864;6.438;2022-11-03T12:45:45;15.30;99.90
2899;DHT22;1459;50.864;6.438;2022-11-03T12:48:12;15.30;99.90
2899;DHT22;1459;50.864;6.438;2022-11-03T12:50:39;15.30;99.90
2899;DHT22;1459;50.864;6.438;2022-11-03T12:53:08;15.30;99.90
2899;DHT22;1459;50.864;6.438;2022-11-03T12:55:35;15.30;99.90
2899;DHT22;1459;50.864;6.438;2022-11-03T12:58:02;15.30;99.90
2899;DHT22;1459;50.864;6.438;2022-11-03T13:00:29;15.40;99.90
2899;DHT22;1459;50.864;6.438;2022-11-03T13:02:56;15.40;99.90
2899;DHT22;1459;50.864;6.438;2022-11-03T13:05:23;15.40;99.90
2899;DHT22;1459;50.864;6.438;2022-11-03T13:07:50;15.50;99.90
2899;DHT22;1459;50.864;6.438;2022-11-03T13:10:19;15.60;99.90
2899;DHT22;1459;50.864;6.438;2022-11-03T13:12:46;15.60;99.90
2899;DHT22;1459;50.864;6.438;2022-11-03T13:15:13;15.70;99.90
2899;DHT22;1459;50.864;6.438;2022-11-03T13:17:41;15.70;99.90
2899;DHT22;1459;50.864;6.438;2022-11-03T13:20:08;15.70;99.90
2899;DHT22;1459;50.864;6.438;2022-11-03T13:22:39;15.70;99.90
2899;DHT22;1459;50.864;6.438;2022-11-03T13:25:07;15.70;99.90
2899;DHT22;1459;50.864;6.438;2022-11-03T13:27:36;15.70;99.90
2899;DHT22;1459;50.864;6.438;2022-11-03T13:30:03;15.60;99.90
2899;DHT22;1459;50.864;6.438;2022-11-03T13:32:31;15.60;99.90
2899;DHT22;1459;50.864;6.438;2022-11-03T13:34:59;15.60;99.90
2899;DHT22;1459;50.864;6.438;2022-11-03T13:37:26;15.60;99.90
2899;DHT22;1459;50.864;6.438;2022-11-03T13:39:53;15.50;99.90
2899;DHT22;1459;50.864;6.438;2022-11-03T13:42:20;15.50;99.90
2899;DHT22;1459;50.864;6.438;2022-11-03T13:44:48;15.40;99.90
2899;DHT22;1459;50.864;6.438;2022-11-03T13:47:15;15.40;99.90
2899;DHT22;1459;50.864;6.438;2022-11-03T13:49:42;15.40;99.90
2899;DHT22;1459;50.864;6.438;2022-11-03T13:52:09;15.40;99.90
2899;DHT22;1459;50.864;6.438;2022-11-03T13:54:36;15.40;99.90
2899;DHT22;1459;50.864;6.438;2022-11-03T13:57:04;15.30;99.90
2899;DHT22;1459;50.864;6.438;2022-11-03T13:59:31;15.30;99.90
2899;DHT22;1459;50.864;6.438;2022-11-03T14:02:01;15.30;99.90
2899;DHT22;1459;50.864;6.438;2022-11-03T14:04:28;15.30;99.90
2899;DHT22;1459;50.864;6.438;2022-11-03T14:06:54;15.30;99.90
2899;DHT22;1459;50.864;6.438;2022-11-03T14:09:22;15.30;99.90
2899;DHT22;1459;50.864;6.438;2022-11-03T14:11:49;15.30;99.90
2899;DHT22;1459;50.864;6.438;2022-11-03T14:14:34;15.20;99.90
2899;DHT22;1459;50.864;6.438;2022-11-03T14:17:02;15.20;99.90
2899;DHT22;1459;50.864;6.438;2022-11-03T14:19:29;15.20;99.90
2899;DHT22;1459;50.864;6.438;2022-11-03T14:21:58;15.20;99.90
2899;DHT22;1459;50.864;6.438;2022-11-03T14:24:25;15.20;99.90
2899;DHT22;1459;50.864;6.438;2022-11-03T14:26:52;15.20;99.90
2899;DHT22;1459;50.864;6.438;2022-11-03T14:29:19;15.20;99.90
2899;DHT22;1459;50.864;6.438;2022-11-03T14:31:46;15.20;99.90
2899;DHT22;1459;50.864;6.438;2022-11-03T14:34:15;15.20;99.90
2899;DHT22;1459;50.864;6.438;2022-11-03T14:36:42;15.20;99.90
2899;DHT22;1459;50.864;6.438;2022-11-03T14:39:09;15.20;99.90
2899;DHT22;1459;50.864;6.438;2022-11-03T14:41:36;15.20;99.90
2899;DHT22;1459;50.864;6.438;2022-11-03T14:44:20;15.10;99.90
2899;DHT22;1459;50.864;6.438;2022-11-03T14:46:47;15.00;99.90
2899;DHT22;1459;50.864;6.438;2022-11-03T14:49:15;15.00;99.90
2899;DHT22;1459;50.864;6.438;2022-11-03T14:51:42;15.00;99.90
2899;DHT22;1459;50.864;6.438;2022-11-03T14:54:09;14.90;99.90
2899;DHT22;1459;50.864;6.438;2022-11-03T14:56:36;14.90;99.90
2899;DHT22;1459;50.864;6.438;2022-11-03T14:59:03;14.90;99.90
2899;DHT22;1459;50.864;6.438;2022-11-03T15:01:30;14.90;99.90
2899;DHT22;1459;50.864;6.438;2022-11-03T15:03:58;14.90;99.90
2899;DHT22;1459;50.864;6.438;2022-11-03T15:06:26;14.90;99.90
2899;DHT22;1459;50.864;6.438;2022-11-03T15:08:53;14.80;99.90
2899;DHT22;1459;50.864;6.438;2022-11-03T15:11:20;14.80;99.90
2899;DHT22;1459;50.864;6.438;2022-11-03T15:13:47;14.70;99.90
2899;DHT22;1459;50.864;6.438;2022-11-03T15:16:14;14.70;99.90
2899;DHT22;1459;50.864;6.438;2022-11-03T15:18:41;14.70;99.90
2899;DHT22;1459;50.864;6.438;2022-11-03T15:21:09;14.70;99.90
2899;DHT22;1459;50.864;6.438;2022-11-03T15:23:37;14.70;99.90
2899;DHT22;1459;50.864;6.438;2022-11-03T15:26:04;14.70;99.90
2899;DHT22;1459;50.864;6.438;2022-11-03T15:28:31;14.60;99.90
2899;DHT22;1459;50.864;6.438;2022-11-03T15:30:58;14.60;99.90
2899;DHT22;1459;50.864;6.438;2022-11-03T15:33:26;14.60;99.90
2899;DHT22;1459;50.864;6.438;2022-11-03T15:35:53;14.60;99.90
2899;DHT22;1459;50.864;6.438;2022-11-03T15:38:20;14.60;99.90
2899;DHT22;1459;50.864;6.438;2022-11-03T15:40:49;14.50;99.90
2899;DHT22;1459;50.864;6.438;2022-11-03T15:43:16;14.50;99.90
2899;DHT22;1459;50.864;6.438;2022-11-03T15:45:43;14.50;99.90
2899;DHT22;1459;50.864;6.438;2022-11-03T15:48:10;14.50;99.90
2899;DHT22;1459;50.864;6.438;2022-11-03T15:50:37;14.50;99.90
2899;DHT22;1459;50.864;6.438;2022-11-03T15:53:04;14.40;99.90
2899;DHT22;1459;50.864;6.438;2022-11-03T15:55:31;14.40;99.90
2899;DHT22;1459;50.864;6.438;2022-11-03T15:58:00;14.40;99.90
2899;DHT22;1459;50.864;6.438;2022-11-03T16:00:27;14.40;99.90
2899;DHT22;1459;50.864;6.438;2022-11-03T16:02:54;14.40;99.90
2899;DHT22;1459;50.864;6.438;2022-11-03T16:05:21;14.40;99.90
2899;DHT22;1459;50.864;6.438;2022-11-03T16:07:48;14.40;99.90
2899;DHT22;1459;50.864;6.438;2022-11-03T16:10:15;14.40;99.90
2899;DHT22;1459;50.864;6.438;2022-11-03T16:12:42;14.40;99.90
2899;DHT22;1459;50.864;6.438;2022-11-03T16:15:11;14.30;99.90
2899;DHT22;1459;50.864;6.438;2022-11-03T16:17:39;14.30;99.90
2899;DHT22;1459;50.864;6.438;2022-11-03T16:20:07;14.30;99.90
2899;DHT22;1459;50.864;6.438;2022-11-03T16:22:34;14.30;99.90
2899;DHT22;1459;50.864;6.438;2022-11-03T16:25:02;14.30;99.90
2899;DHT22;1459;50.864;6.438;2022-11-03T16:27:29;14.30;99.90
2899;DHT22;1459;50.864;6.438;2022-11-03T16:29:56;14.30;99.90
2899;DHT22;1459;50.864;6.438;2022-11-03T16:32:24;14.30;99.90
2899;DHT22;1459;50.864;6.438;2022-11-03T16:34:51;14.30;99.90
2899;DHT22;1459;50.864;6.438;2022-11-03T16:37:18;14.30;99.90
2899;DHT22;1459;50.864;6.438;2022-11-03T16:39:45;14.20;99.90